sensor_id;sensor_type;location;lat;lon;timestamp;P1;durP1;ratioP1;P2;durP2;ratioP2
20040;SDS011;10181;48.072;9.884;2023-03-13T00:01:09;33.53;;;32.20;;
20040;SDS011;10181;48.072;9.884;2023-03-13T00:03:38;29.53;;;28.43;;
20040;SDS011;10181;48.072;9.884;2023-03-13T00:06:03;37.90;;;36.43;;
20040;SDS011;10181;48.072;9.884;2023-03-13T00:08:29;50.63;;;48.73;;
20040;SDS011;10181;48.072;9.884;2023-03-13T00:10:55;40.37;;;38.63;;
20040;SDS011;10181;48.072;9.884;2023-03-13T00:13:21;57.43;;;55.27;;
20040;SDS011;10181;48.072;9.884;2023-03-13T00:15:46;47.17;;;44.97;;
20040;SDS011;10181;48.072;9.884;2023-03-13T00:18:12;57.80;;;55.40;;
20040;SDS011;10181;48.072;9.884;2023-03-13T00:20:38;69.83;;;67.13;;
20040;SDS011;10181;48.072;9.884;2023-03-13T00:23:03;63.47;;;61.07;;
20040;SDS011;10181;48.072;9.884;2023-03-13T00:25:29;70.13;;;67.23;;
20040;SDS011;10181;48.072;9.884;2023-03-13T00:27:55;57.13;;;54.97;;
20040;SDS011;10181;48.072;9.884;2023-03-13T00:30:20;55.03;;;52.93;;
20040;SDS011;10181;48.072;9.884;2023-03-13T00:32:46;58.67;;;56.47;;
20040;SDS011;10181;48.072;9.884;2023-03-13T00:35:12;59.03;;;56.83;;
20040;SDS011;10181;48.072;9.884;2023-03-13T00:37:38;64.30;;;61.90;;
20040;SDS011;10181;48.072;9.884;2023-03-13T00:40:05;55.30;;;53.30;;
20040;SDS011;10181;48.072;9.884;2023-03-13T00:42:32;65.93;;;63.43;;
20040;SDS011;10181;48.072;9.884;2023-03-13T00:44:57;52.43;;;50.53;;
20040;SDS011;10181;48.072;9.884;2023-03-13T00:47:23;62.40;;;60.03;;
20040;SDS011;10181;48.072;9.884;2023-03-13T00:49:48;58.50;;;56.27;;
20040;SDS011;10181;48.072;9.884;2023-03-13T00:52:14;61.03;;;58.80;;
20040;SDS011;10181;48.072;9.884;2023-03-13T00:54:40;52.03;;;50.10;;
20040;SDS011;10181;48.072;9.884;2023-03-13T00:57:05;50.40;;;48.53;;
20040;SDS011;10181;48.072;9.884;2023-03-13T00:59:31;61.30;;;59.00;;
20040;SDS011;10181;48.072;9.884;2023-03-13T01:01:57;58.63;;;56.13;;
20040;SDS011;10181;48.072;9.884;2023-03-13T01:04:22;54.50;;;52.40;;
20040;SDS011;10181;48.072;9.884;2023-03-13T01:06:48;50.67;;;48.83;;
20040;SDS011;10181;48.072;9.884;2023-03-13T01:09:14;54.20;;;52.13;;
20040;SDS011;10181;48.072;9.884;2023-03-13T01:11:40;55.43;;;53.33;;
20040;SDS011;10181;48.072;9.884;2023-03-13T01:14:11;47.87;;;46.07;;
20040;SDS011;10181;48.072;9.884;2023-03-13T01:16:41;56.47;;;54.37;;
20040;SDS011;10181;48.072;9.884;2023-03-13T01:19:08;58.10;;;55.87;;
20040;SDS011;10181;48.072;9.884;2023-03-13T01:21:36;48.57;;;46.77;;
20040;SDS011;10181;48.072;9.884;2023-03-13T01:24:02;57.60;;;55.50;;
20040;SDS011;10181;48.072;9.884;2023-03-13T01:26:28;69.20;;;66.63;;
20040;SDS011;10181;48.072;9.884;2023-03-13T01:28:54;67.60;;;64.97;;
20040;SDS011;10181;48.072;9.884;2023-03-13T01:31:21;56.30;;;54.10;;
20040;SDS011;10181;48.072;9.884;2023-03-13T01:33:49;57.43;;;55.33;;
20040;SDS011;10181;48.072;9.884;2023-03-13T01:36:17;64.97;;;62.47;;
20040;SDS011;10181;48.072;9.884;2023-03-13T01:38:46;64.13;;;61.77;;
20040;SDS011;10181;48.072;9.884;2023-03-13T01:41:12;62.03;;;59.60;;
20040;SDS011;10181;48.072;9.884;2023-03-13T01:43:38;62.93;;;60.67;;
20040;SDS011;10181;48.072;9.884;2023-03-13T01:46:10;67.53;;;65.03;;
20040;SDS011;10181;48.072;9.884;2023-03-13T01:48:44;60.03;;;57.63;;
20040;SDS011;10181;48.072;9.884;2023-03-13T01:51:15;56.00;;;53.87;;
20040;SDS011;10181;48.072;9.884;2023-03-13T01:54:22;46.03;;;44.23;;
20040;SDS011;10181;48.072;9.884;2023-03-13T01:56:57;60.63;;;58.33;;
20040;SDS011;10181;48.072;9.884;2023-03-13T01:59:31;54.57;;;52.57;;
20040;SDS011;10181;48.072;9.884;2023-03-13T02:02:02;46.43;;;44.67;;
20040;SDS011;10181;48.072;9.884;2023-03-13T02:04:30;51.63;;;49.73;;
20040;SDS011;10181;48.072;9.884;2023-03-13T02:07:01;41.80;;;39.83;;
20040;SDS011;10181;48.072;9.884;2023-03-13T02:09:30;50.03;;;48.23;;
20040;SDS011;10181;48.072;9.884;2023-03-13T02:12:17;38.17;;;36.80;;
20040;SDS011;10181;48.072;9.884;2023-03-13T02:15:25;48.83;;;46.97;;
20040;SDS011;10181;48.072;9.884;2023-03-13T02:17:52;53.73;;;51.67;;
20040;SDS011;10181;48.072;9.884;2023-03-13T02:20:20;45.80;;;44.03;;
20040;SDS011;10181;48.072;9.884;2023-03-13T02:30:41;59.50;;;57.23;;
20040;SDS011;10181;48.072;9.884;2023-03-13T02:33:09;56.33;;;54.23;;
20040;SDS011;10181;48.072;9.884;2023-03-13T02:35:36;68.97;;;66.43;;
20040;SDS011;10181;48.072;9.884;2023-03-13T02:38:05;69.43;;;66.83;;
20040;SDS011;10181;48.072;9.884;2023-03-13T02:40:34;66.30;;;63.83;;
20040;SDS011;10181;48.072;9.884;2023-03-13T02:43:04;53.67;;;51.63;;
20040;SDS011;10181;48.072;9.884;2023-03-13T02:45:33;68.97;;;66.40;;
20040;SDS011;10181;48.072;9.884;2023-03-13T02:47:59;54.33;;;52.20;;
20040;SDS011;10181;48.072;9.884;2023-03-13T02:50:24;66.70;;;64.03;;
20040;SDS011;10181;48.072;9.884;2023-03-13T02:53:08;64.50;;;61.93;;
20040;SDS011;10181;48.072;9.884;2023-03-13T02:55:38;54.00;;;51.87;;
20040;SDS011;10181;48.072;9.884;2023-03-13T02:58:05;61.33;;;58.90;;
20040;SDS011;10181;48.072;9.884;2023-03-13T03:00:31;46.13;;;44.33;;
20040;SDS011;10181;48.072;9.884;2023-03-13T03:02:57;47.13;;;45.27;;
20040;SDS011;10181;48.072;9.884;2023-03-13T03:05:23;49.27;;;47.27;;
20040;SDS011;10181;48.072;9.884;2023-03-13T03:07:49;51.70;;;49.80;;
20040;SDS011;10181;48.072;9.884;2023-03-13T03:10:15;53.77;;;51.60;;
20040;SDS011;10181;48.072;9.884;2023-03-13T03:12:41;54.77;;;52.70;;
20040;SDS011;10181;48.072;9.884;2023-03-13T03:15:07;48.23;;;46.40;;
20040;SDS011;10181;48.072;9.884;2023-03-13T03:17:33;56.60;;;54.47;;
20040;SDS011;10181;48.072;9.884;2023-03-13T03:19:59;40.43;;;38.97;;
20040;SDS011;10181;48.072;9.884;2023-03-13T03:22:24;51.77;;;49.77;;
20040;SDS011;10181;48.072;9.884;2023-03-13T03:24:50;32.30;;;31.07;;
20040;SDS011;10181;48.072;9.884;2023-03-13T03:27:15;36.63;;;35.33;;
20040;SDS011;10181;48.072;9.884;2023-03-13T03:29:41;31.47;;;30.23;;
20040;SDS011;10181;48.072;9.884;2023-03-13T03:32:07;26.37;;;25.50;;
20040;SDS011;10181;48.072;9.884;2023-03-13T03:34:32;25.50;;;24.53;;
20040;SDS011;10181;48.072;9.884;2023-03-13T03:36:58;23.90;;;22.87;;
20040;SDS011;10181;48.072;9.884;2023-03-13T03:39:24;20.07;;;19.37;;
20040;SDS011;10181;48.072;9.884;2023-03-13T03:41:49;17.13;;;16.53;;
20040;SDS011;10181;48.072;9.884;2023-03-13T03:44:15;15.03;;;14.53;;
20040;SDS011;10181;48.072;9.884;2023-03-13T03:46:40;11.30;;;10.90;;
20040;SDS011;10181;48.072;9.884;2023-03-13T03:49:06;9.00;;;8.70;;
20040;SDS011;10181;48.072;9.884;2023-03-13T03:51:32;9.43;;;9.03;;
20040;SDS011;10181;48.072;9.884;2023-03-13T03:53:57;9.30;;;8.93;;
20040;SDS011;10181;48.072;9.884;2023-03-13T03:56:23;9.80;;;9.50;;
20040;SDS011;10181;48.072;9.884;2023-03-13T03:58:48;7.50;;;7.13;;
20040;SDS011;10181;48.072;9.884;2023-03-13T04:01:14;8.60;;;8.20;;
20040;SDS011;10181;48.072;9.884;2023-03-13T04:03:40;7.27;;;7.07;;
20040;SDS011;10181;48.072;9.884;2023-03-13T04:06:05;6.50;;;6.20;;
20040;SDS011;10181;48.072;9.884;2023-03-13T04:08:31;5.93;;;5.73;;
20040;SDS011;10181;48.072;9.884;2023-03-13T04:10:59;6.10;;;5.90;;
20040;SDS011;10181;48.072;9.884;2023-03-13T04:13:25;6.30;;;6.00;;
20040;SDS011;10181;48.072;9.884;2023-03-13T04:15:51;6.07;;;5.87;;
20040;SDS011;10181;48.072;9.884;2023-03-13T04:18:17;4.83;;;4.67;;
20040;SDS011;10181;48.072;9.884;2023-03-13T04:20:42;5.33;;;5.20;;
20040;SDS011;10181;48.072;9.884;2023-03-13T04:23:08;4.83;;;4.67;;
20040;SDS011;10181;48.072;9.884;2023-03-13T04:25:34;4.87;;;4.73;;
20040;SDS011;10181;48.072;9.884;2023-03-13T04:28:00;4.30;;;4.20;;
20040;SDS011;10181;48.072;9.884;2023-03-13T04:30:25;3.77;;;3.67;;
20040;SDS011;10181;48.072;9.884;2023-03-13T04:32:51;3.77;;;3.67;;
20040;SDS011;10181;48.072;9.884;2023-03-13T04:35:17;8.77;;;8.27;;
20040;SDS011;10181;48.072;9.884;2023-03-13T04:37:42;3.00;;;2.80;;
20040;SDS011;10181;48.072;9.884;2023-03-13T04:40:08;3.30;;;3.20;;
20040;SDS011;10181;48.072;9.884;2023-03-13T04:42:34;2.70;;;2.50;;
20040;SDS011;10181;48.072;9.884;2023-03-13T04:45:00;2.40;;;2.40;;
20040;SDS011;10181;48.072;9.884;2023-03-13T04:47:25;2.77;;;2.67;;
20040;SDS011;10181;48.072;9.884;2023-03-13T04:49:51;3.40;;;3.20;;
20040;SDS011;10181;48.072;9.884;2023-03-13T04:52:16;3.53;;;3.43;;
20040;SDS011;10181;48.072;9.884;2023-03-13T04:54:42;3.13;;;3.03;;
20040;SDS011;10181;48.072;9.884;2023-03-13T04:57:07;2.60;;;2.53;;
20040;SDS011;10181;48.072;9.884;2023-03-13T04:59:34;4.03;;;3.93;;
20040;SDS011;10181;48.072;9.884;2023-03-13T05:02:00;3.07;;;2.97;;
20040;SDS011;10181;48.072;9.884;2023-03-13T05:04:25;3.77;;;3.67;;
20040;SDS011;10181;48.072;9.884;2023-03-13T05:06:51;16.70;;;16.10;;
20040;SDS011;10181;48.072;9.884;2023-03-13T05:09:16;7.23;;;7.03;;
20040;SDS011;10181;48.072;9.884;2023-03-13T05:11:42;5.93;;;5.83;;
20040;SDS011;10181;48.072;9.884;2023-03-13T05:14:07;13.10;;;12.67;;
20040;SDS011;10181;48.072;9.884;2023-03-13T05:16:35;29.83;;;28.73;;
20040;SDS011;10181;48.072;9.884;2023-03-13T05:19:02;30.10;;;29.03;;
20040;SDS011;10181;48.072;9.884;2023-03-13T05:21:28;21.23;;;20.43;;
20040;SDS011;10181;48.072;9.884;2023-03-13T05:23:53;33.07;;;31.87;;
20040;SDS011;10181;48.072;9.884;2023-03-13T05:26:19;41.10;;;39.57;;
20040;SDS011;10181;48.072;9.884;2023-03-13T05:28:45;46.67;;;44.97;;
20040;SDS011;10181;48.072;9.884;2023-03-13T05:31:10;41.07;;;39.43;;
20040;SDS011;10181;48.072;9.884;2023-03-13T05:33:36;43.10;;;41.53;;
20040;SDS011;10181;48.072;9.884;2023-03-13T05:36:01;47.33;;;45.60;;
20040;SDS011;10181;48.072;9.884;2023-03-13T05:38:27;56.67;;;54.57;;
20040;SDS011;10181;48.072;9.884;2023-03-13T05:40:53;57.10;;;54.87;;
20040;SDS011;10181;48.072;9.884;2023-03-13T05:43:18;53.30;;;51.37;;
20040;SDS011;10181;48.072;9.884;2023-03-13T05:45:44;50.53;;;48.73;;
20040;SDS011;10181;48.072;9.884;2023-03-13T05:48:09;51.47;;;49.57;;
20040;SDS011;10181;48.072;9.884;2023-03-13T05:50:35;54.40;;;52.33;;
20040;SDS011;10181;48.072;9.884;2023-03-13T05:53:01;59.03;;;56.87;;
20040;SDS011;10181;48.072;9.884;2023-03-13T05:55:26;56.83;;;54.70;;
20040;SDS011;10181;48.072;9.884;2023-03-13T05:57:52;55.10;;;52.67;;
20040;SDS011;10181;48.072;9.884;2023-03-13T06:00:18;58.80;;;55.03;;
20040;SDS011;10181;48.072;9.884;2023-03-13T06:02:43;65.50;;;62.60;;
20040;SDS011;10181;48.072;9.884;2023-03-13T06:05:09;55.57;;;53.43;;
20040;SDS011;10181;48.072;9.884;2023-03-13T06:07:35;54.53;;;52.50;;
20040;SDS011;10181;48.072;9.884;2023-03-13T06:10:01;57.60;;;55.30;;
20040;SDS011;10181;48.072;9.884;2023-03-13T06:12:28;45.60;;;43.87;;
20040;SDS011;10181;48.072;9.884;2023-03-13T06:14:53;55.30;;;53.20;;
20040;SDS011;10181;48.072;9.884;2023-03-13T06:17:19;43.07;;;41.47;;
20040;SDS011;10181;48.072;9.884;2023-03-13T06:19:45;45.37;;;43.70;;
20040;SDS011;10181;48.072;9.884;2023-03-13T06:22:11;90.50;;;86.90;;
20040;SDS011;10181;48.072;9.884;2023-03-13T06:24:36;54.00;;;52.00;;
20040;SDS011;10181;48.072;9.884;2023-03-13T06:27:02;63.83;;;61.30;;
20040;SDS011;10181;48.072;9.884;2023-03-13T06:29:27;48.67;;;46.87;;
20040;SDS011;10181;48.072;9.884;2023-03-13T06:31:53;57.87;;;55.77;;
20040;SDS011;10181;48.072;9.884;2023-03-13T06:34:19;51.53;;;49.60;;
20040;SDS011;10181;48.072;9.884;2023-03-13T06:36:45;45.63;;;43.87;;
20040;SDS011;10181;48.072;9.884;2023-03-13T06:39:10;47.37;;;45.67;;
20040;SDS011;10181;48.072;9.884;2023-03-13T06:41:36;47.80;;;46.07;;
20040;SDS011;10181;48.072;9.884;2023-03-13T06:44:02;45.83;;;44.20;;
20040;SDS011;10181;48.072;9.884;2023-03-13T06:46:28;43.17;;;41.63;;
20040;SDS011;10181;48.072;9.884;2023-03-13T06:48:54;40.37;;;38.93;;
20040;SDS011;10181;48.072;9.884;2023-03-13T06:51:20;39.33;;;37.93;;
20040;SDS011;10181;48.072;9.884;2023-03-13T06:53:46;38.53;;;37.03;;
20040;SDS011;10181;48.072;9.884;2023-03-13T06:56:12;43.53;;;41.97;;
20040;SDS011;10181;48.072;9.884;2023-03-13T06:58:39;44.20;;;42.60;;
20040;SDS011;10181;48.072;9.884;2023-03-13T07:01:05;53.87;;;51.87;;
20040;SDS011;10181;48.072;9.884;2023-03-13T07:03:36;50.67;;;48.80;;
20040;SDS011;10181;48.072;9.884;2023-03-13T07:06:03;44.53;;;42.90;;
20040;SDS011;10181;48.072;9.884;2023-03-13T07:08:30;41.50;;;39.97;;
20040;SDS011;10181;48.072;9.884;2023-03-13T07:11:00;26.73;;;25.83;;
20040;SDS011;10181;48.072;9.884;2023-03-13T07:13:27;24.63;;;23.77;;
20040;SDS011;10181;48.072;9.884;2023-03-13T07:15:53;50.53;;;48.53;;
20040;SDS011;10181;48.072;9.884;2023-03-13T07:18:20;31.37;;;30.27;;
20040;SDS011;10181;48.072;9.884;2023-03-13T07:20:52;12.53;;;12.13;;
20040;SDS011;10181;48.072;9.884;2023-03-13T07:23:19;24.10;;;23.30;;
20040;SDS011;10181;48.072;9.884;2023-03-13T07:28:41;30.73;;;29.57;;
20040;SDS011;10181;48.072;9.884;2023-03-13T07:31:15;19.87;;;19.27;;
20040;SDS011;10181;48.072;9.884;2023-03-13T07:33:42;26.47;;;25.33;;
20040;SDS011;10181;48.072;9.884;2023-03-13T07:36:09;23.63;;;22.73;;
20040;SDS011;10181;48.072;9.884;2023-03-13T07:38:35;25.77;;;24.97;;
20040;SDS011;10181;48.072;9.884;2023-03-13T07:41:01;25.60;;;24.80;;
20040;SDS011;10181;48.072;9.884;2023-03-13T07:43:28;17.77;;;17.27;;
20040;SDS011;10181;48.072;9.884;2023-03-13T07:45:56;16.47;;;15.97;;
20040;SDS011;10181;48.072;9.884;2023-03-13T07:48:27;18.30;;;17.77;;
20040;SDS011;10181;48.072;9.884;2023-03-13T07:50:54;22.03;;;21.33;;
20040;SDS011;10181;48.072;9.884;2023-03-13T07:53:21;16.00;;;15.50;;
20040;SDS011;10181;48.072;9.884;2023-03-13T07:56:00;17.13;;;16.63;;
20040;SDS011;10181;48.072;9.884;2023-03-13T07:58:30;15.33;;;14.93;;
20040;SDS011;10181;48.072;9.884;2023-03-13T08:00:57;11.20;;;10.90;;
20040;SDS011;10181;48.072;9.884;2023-03-13T08:03:23;9.43;;;9.13;;
20040;SDS011;10181;48.072;9.884;2023-03-13T08:05:59;8.97;;;8.67;;
20040;SDS011;10181;48.072;9.884;2023-03-13T08:08:26;11.03;;;10.73;;
20040;SDS011;10181;48.072;9.884;2023-03-13T08:10:52;6.47;;;6.30;;
20040;SDS011;10181;48.072;9.884;2023-03-13T08:13:18;4.80;;;4.70;;
20040;SDS011;10181;48.072;9.884;2023-03-13T08:15:44;4.47;;;4.37;;
20040;SDS011;10181;48.072;9.884;2023-03-13T08:18:09;2.80;;;2.70;;
20040;SDS011;10181;48.072;9.884;2023-03-13T08:20:35;3.93;;;3.60;;
20040;SDS011;10181;48.072;9.884;2023-03-13T08:23:00;6.60;;;6.40;;
20040;SDS011;10181;48.072;9.884;2023-03-13T08:25:26;4.70;;;4.50;;
20040;SDS011;10181;48.072;9.884;2023-03-13T08:27:51;7.47;;;7.27;;
20040;SDS011;10181;48.072;9.884;2023-03-13T08:30:18;4.83;;;4.73;;
20040;SDS011;10181;48.072;9.884;2023-03-13T08:32:44;3.70;;;3.50;;
20040;SDS011;10181;48.072;9.884;2023-03-13T08:35:10;5.37;;;5.27;;
20040;SDS011;10181;48.072;9.884;2023-03-13T08:37:35;3.63;;;3.53;;
20040;SDS011;10181;48.072;9.884;2023-03-13T08:40:01;4.93;;;4.83;;
20040;SDS011;10181;48.072;9.884;2023-03-13T08:42:27;4.43;;;4.33;;
20040;SDS011;10181;48.072;9.884;2023-03-13T08:44:53;5.60;;;5.50;;
20040;SDS011;10181;48.072;9.884;2023-03-13T08:47:19;4.30;;;4.20;;
20040;SDS011;10181;48.072;9.884;2023-03-13T08:49:44;5.03;;;4.93;;
20040;SDS011;10181;48.072;9.884;2023-03-13T08:52:10;3.17;;;3.00;;
20040;SDS011;10181;48.072;9.884;2023-03-13T08:54:35;4.93;;;4.83;;
20040;SDS011;10181;48.072;9.884;2023-03-13T08:57:01;4.63;;;4.53;;
20040;SDS011;10181;48.072;9.884;2023-03-13T08:59:26;4.50;;;4.13;;
20040;SDS011;10181;48.072;9.884;2023-03-13T09:01:52;5.00;;;4.90;;
20040;SDS011;10181;48.072;9.884;2023-03-13T09:04:18;4.23;;;4.07;;
20040;SDS011;10181;48.072;9.884;2023-03-13T09:06:44;7.17;;;6.97;;
20040;SDS011;10181;48.072;9.884;2023-03-13T09:09:10;4.97;;;4.83;;
20040;SDS011;10181;48.072;9.884;2023-03-13T09:11:38;4.37;;;4.27;;
20040;SDS011;10181;48.072;9.884;2023-03-13T09:14:04;3.60;;;3.50;;
20040;SDS011;10181;48.072;9.884;2023-03-13T09:16:31;4.40;;;4.30;;
20040;SDS011;10181;48.072;9.884;2023-03-13T09:18:58;2.73;;;2.73;;
20040;SDS011;10181;48.072;9.884;2023-03-13T09:21:25;1.70;;;1.60;;
20040;SDS011;10181;48.072;9.884;2023-03-13T09:23:55;1.30;;;1.30;;
20040;SDS011;10181;48.072;9.884;2023-03-13T09:26:21;2.30;;;2.20;;
20040;SDS011;10181;48.072;9.884;2023-03-13T09:28:47;1.30;;;1.30;;
20040;SDS011;10181;48.072;9.884;2023-03-13T09:31:14;1.93;;;1.83;;
20040;SDS011;10181;48.072;9.884;2023-03-13T09:33:41;2.23;;;2.23;;
20040;SDS011;10181;48.072;9.884;2023-03-13T09:36:08;3.70;;;3.60;;
20040;SDS011;10181;48.072;9.884;2023-03-13T09:38:35;1.87;;;1.87;;
20040;SDS011;10181;48.072;9.884;2023-03-13T09:41:03;1.30;;;1.30;;
20040;SDS011;10181;48.072;9.884;2023-03-13T09:49:03;1.33;;;1.33;;
20040;SDS011;10181;48.072;9.884;2023-03-13T09:51:34;1.63;;;1.63;;
20040;SDS011;10181;48.072;9.884;2023-03-13T09:56:52;1.83;;;1.73;;
20040;SDS011;10181;48.072;9.884;2023-03-13T10:02:14;1.33;;;1.33;;
20040;SDS011;10181;48.072;9.884;2023-03-13T10:04:47;3.90;;;3.80;;
20040;SDS011;10181;48.072;9.884;2023-03-13T10:07:17;1.67;;;1.67;;
20040;SDS011;10181;48.072;9.884;2023-03-13T10:09:45;2.63;;;2.43;;
20040;SDS011;10181;48.072;9.884;2023-03-13T10:14:53;2.27;;;2.17;;
20040;SDS011;10181;48.072;9.884;2023-03-13T10:17:52;2.40;;;2.40;;
20040;SDS011;10181;48.072;9.884;2023-03-13T10:20:28;15.53;;;15.10;;
20040;SDS011;10181;48.072;9.884;2023-03-13T10:23:09;4.80;;;4.70;;
20040;SDS011;10181;48.072;9.884;2023-03-13T10:25:44;3.07;;;2.97;;
20040;SDS011;10181;48.072;9.884;2023-03-13T10:28:11;4.80;;;4.70;;
20040;SDS011;10181;48.072;9.884;2023-03-13T10:30:39;8.20;;;8.00;;
20040;SDS011;10181;48.072;9.884;2023-03-13T10:35:38;4.77;;;4.67;;
20040;SDS011;10181;48.072;9.884;2023-03-13T10:40:42;9.17;;;8.97;;
20040;SDS011;10181;48.072;9.884;2023-03-13T10:43:18;18.43;;;17.73;;
20040;SDS011;10181;48.072;9.884;2023-03-13T10:45:44;20.67;;;19.97;;
20040;SDS011;10181;48.072;9.884;2023-03-13T10:50:43;51.67;;;49.73;;
20040;SDS011;10181;48.072;9.884;2023-03-13T10:53:52;50.17;;;48.27;;
20040;SDS011;10181;48.072;9.884;2023-03-13T10:58:46;51.60;;;49.67;;
20040;SDS011;10181;48.072;9.884;2023-03-13T11:01:41;51.20;;;49.30;;
20040;SDS011;10181;48.072;9.884;2023-03-13T11:04:28;21.87;;;21.17;;
20040;SDS011;10181;48.072;9.884;2023-03-13T11:06:57;22.53;;;21.80;;
20040;SDS011;10181;48.072;9.884;2023-03-13T11:09:30;40.67;;;39.17;;
20040;SDS011;10181;48.072;9.884;2023-03-13T11:12:04;35.13;;;33.93;;
20040;SDS011;10181;48.072;9.884;2023-03-13T11:14:36;38.43;;;37.03;;
20040;SDS011;10181;48.072;9.884;2023-03-13T11:19:59;15.17;;;14.60;;
20040;SDS011;10181;48.072;9.884;2023-03-13T11:22:33;29.87;;;28.90;;
20040;SDS011;10181;48.072;9.884;2023-03-13T11:25:17;12.60;;;12.20;;
20040;SDS011;10181;48.072;9.884;2023-03-13T11:33:54;40.03;;;38.60;;
20040;SDS011;10181;48.072;9.884;2023-03-13T11:39:57;71.50;;;68.70;;
20040;SDS011;10181;48.072;9.884;2023-03-13T11:56:56;30.13;;;29.13;;
20040;SDS011;10181;48.072;9.884;2023-03-13T12:05:02;94.93;;;91.03;;
20040;SDS011;10181;48.072;9.884;2023-03-13T12:07:34;127.00;;;122.00;;
20040;SDS011;10181;48.072;9.884;2023-03-13T12:12:48;105.63;;;101.53;;
20040;SDS011;10181;48.072;9.884;2023-03-13T12:20:43;28.97;;;27.97;;
20040;SDS011;10181;48.072;9.884;2023-03-13T12:23:28;35.03;;;33.73;;
20040;SDS011;10181;48.072;9.884;2023-03-13T12:31:40;69.50;;;66.83;;
20040;SDS011;10181;48.072;9.884;2023-03-13T12:34:32;78.17;;;75.13;;
20040;SDS011;10181;48.072;9.884;2023-03-13T12:37:19;29.03;;;27.83;;
20040;SDS011;10181;48.072;9.884;2023-03-13T12:39:58;98.00;;;94.37;;
20040;SDS011;10181;48.072;9.884;2023-03-13T12:45:33;41.10;;;39.67;;
20040;SDS011;10181;48.072;9.884;2023-03-13T12:56:46;26.87;;;25.97;;
20040;SDS011;10181;48.072;9.884;2023-03-13T12:59:31;11.93;;;11.63;;
20040;SDS011;10181;48.072;9.884;2023-03-13T13:01:58;18.17;;;17.43;;
20040;SDS011;10181;48.072;9.884;2023-03-13T13:04:31;10.32;;;10.13;;
20040;SDS011;10181;48.072;9.884;2023-03-13T13:07:06;9.55;;;9.35;;
20040;SDS011;10181;48.072;9.884;2023-03-13T13:10:12;9.00;;;8.80;;
20040;SDS011;10181;48.072;9.884;2023-03-13T13:12:45;18.42;;;17.83;;
20040;SDS011;10181;48.072;9.884;2023-03-13T13:15:31;8.20;;;8.00;;
20040;SDS011;10181;48.072;9.884;2023-03-13T13:23:30;9.83;;;9.53;;
20040;SDS011;10181;48.072;9.884;2023-03-13T13:28:51;9.20;;;9.00;;
20040;SDS011;10181;48.072;9.884;2023-03-13T13:37:38;14.50;;;14.10;;
20040;SDS011;10181;48.072;9.884;2023-03-13T13:39:48;12.27;;;11.98;;
20040;SDS011;10181;48.072;9.884;2023-03-13T13:47:29;6.90;;;6.70;;
20040;SDS011;10181;48.072;9.884;2023-03-13T13:49:57;14.63;;;14.10;;
20040;SDS011;10181;48.072;9.884;2023-03-13T13:55:28;10.63;;;10.33;;
20040;SDS011;10181;48.072;9.884;2023-03-13T13:57:59;10.13;;;9.83;;
20040;SDS011;10181;48.072;9.884;2023-03-13T14:00:35;11.80;;;11.50;;
20040;SDS011;10181;48.072;9.884;2023-03-13T14:03:25;5.40;;;5.30;;
20040;SDS011;10181;48.072;9.884;2023-03-13T14:06:19;5.30;;;5.20;;
20040;SDS011;10181;48.072;9.884;2023-03-13T14:08:49;6.73;;;6.60;;
20040;SDS011;10181;48.072;9.884;2023-03-13T14:14:07;13.57;;;13.20;;
20040;SDS011;10181;48.072;9.884;2023-03-13T14:16:34;25.03;;;24.23;;
20040;SDS011;10181;48.072;9.884;2023-03-13T14:19:01;12.13;;;11.73;;
20040;SDS011;10181;48.072;9.884;2023-03-13T14:21:27;11.47;;;11.17;;
20040;SDS011;10181;48.072;9.884;2023-03-13T14:23:53;25.40;;;24.60;;
20040;SDS011;10181;48.072;9.884;2023-03-13T14:26:23;23.40;;;22.67;;
20040;SDS011;10181;48.072;9.884;2023-03-13T14:28:58;28.10;;;27.10;;
20040;SDS011;10181;48.072;9.884;2023-03-13T14:31:37;20.33;;;19.70;;
20040;SDS011;10181;48.072;9.884;2023-03-13T14:34:04;28.17;;;27.27;;
20040;SDS011;10181;48.072;9.884;2023-03-13T14:36:54;16.03;;;15.53;;
20040;SDS011;10181;48.072;9.884;2023-03-13T14:39:41;23.13;;;22.43;;
20040;SDS011;10181;48.072;9.884;2023-03-13T14:42:13;26.27;;;25.37;;
20040;SDS011;10181;48.072;9.884;2023-03-13T14:44:40;8.27;;;8.00;;
20040;SDS011;10181;48.072;9.884;2023-03-13T14:47:23;6.73;;;6.63;;
20040;SDS011;10181;48.072;9.884;2023-03-13T14:49:57;12.77;;;12.47;;
20040;SDS011;10181;48.072;9.884;2023-03-13T14:52:27;8.03;;;7.83;;
20040;SDS011;10181;48.072;9.884;2023-03-13T14:54:56;8.03;;;7.83;;
20040;SDS011;10181;48.072;9.884;2023-03-13T14:57:26;6.63;;;6.53;;
20040;SDS011;10181;48.072;9.884;2023-03-13T14:59:53;7.03;;;6.83;;
20040;SDS011;10181;48.072;9.884;2023-03-13T15:02:29;6.87;;;6.57;;
20040;SDS011;10181;48.072;9.884;2023-03-13T15:07:26;5.37;;;5.27;;
20040;SDS011;10181;48.072;9.884;2023-03-13T15:10:16;5.67;;;5.47;;
20040;SDS011;10181;48.072;9.884;2023-03-13T15:12:42;6.27;;;6.17;;
20040;SDS011;10181;48.072;9.884;2023-03-13T15:15:08;5.07;;;4.97;;
20040;SDS011;10181;48.072;9.884;2023-03-13T15:17:34;5.13;;;5.03;;
20040;SDS011;10181;48.072;9.884;2023-03-13T15:20:00;5.90;;;5.80;;
20040;SDS011;10181;48.072;9.884;2023-03-13T15:22:27;4.97;;;4.87;;
20040;SDS011;10181;48.072;9.884;2023-03-13T15:24:54;6.17;;;6.00;;
20040;SDS011;10181;48.072;9.884;2023-03-13T15:27:21;4.70;;;4.60;;
20040;SDS011;10181;48.072;9.884;2023-03-13T15:29:47;7.10;;;6.90;;
20040;SDS011;10181;48.072;9.884;2023-03-13T15:32:16;4.80;;;4.70;;
20040;SDS011;10181;48.072;9.884;2023-03-13T15:34:47;5.80;;;5.70;;
20040;SDS011;10181;48.072;9.884;2023-03-13T15:37:13;5.70;;;5.60;;
20040;SDS011;10181;48.072;9.884;2023-03-13T15:39:39;4.77;;;4.67;;
20040;SDS011;10181;48.072;9.884;2023-03-13T15:42:05;4.97;;;4.80;;
20040;SDS011;10181;48.072;9.884;2023-03-13T15:44:31;6.10;;;6.00;;
20040;SDS011;10181;48.072;9.884;2023-03-13T15:46:57;6.60;;;6.50;;
20040;SDS011;10181;48.072;9.884;2023-03-13T15:49:23;5.50;;;5.30;;
20040;SDS011;10181;48.072;9.884;2023-03-13T15:51:48;5.70;;;5.60;;
20040;SDS011;10181;48.072;9.884;2023-03-13T15:54:14;4.30;;;4.20;;
20040;SDS011;10181;48.072;9.884;2023-03-13T15:56:40;11.37;;;11.07;;
20040;SDS011;10181;48.072;9.884;2023-03-13T15:59:09;11.87;;;11.57;;
20040;SDS011;10181;48.072;9.884;2023-03-13T16:01:36;47.77;;;46.00;;
20040;SDS011;10181;48.072;9.884;2023-03-13T16:04:02;19.17;;;18.60;;
20040;SDS011;10181;48.072;9.884;2023-03-13T16:06:28;17.93;;;17.23;;
20040;SDS011;10181;48.072;9.884;2023-03-13T16:08:57;26.87;;;25.97;;
20040;SDS011;10181;48.072;9.884;2023-03-13T16:11:24;53.17;;;51.20;;
20040;SDS011;10181;48.072;9.884;2023-03-13T16:13:50;65.60;;;63.10;;
20040;SDS011;10181;48.072;9.884;2023-03-13T16:16:20;66.83;;;64.37;;
20040;SDS011;10181;48.072;9.884;2023-03-13T16:18:47;59.47;;;57.30;;
20040;SDS011;10181;48.072;9.884;2023-03-13T16:21:32;44.53;;;42.90;;
20040;SDS011;10181;48.072;9.884;2023-03-13T16:23:58;15.47;;;15.07;;
20040;SDS011;10181;48.072;9.884;2023-03-13T16:26:25;9.20;;;8.90;;
20040;SDS011;10181;48.072;9.884;2023-03-13T16:28:53;4.60;;;4.40;;
20040;SDS011;10181;48.072;9.884;2023-03-13T16:31:20;5.07;;;4.87;;
20040;SDS011;10181;48.072;9.884;2023-03-13T16:33:48;4.80;;;4.70;;
20040;SDS011;10181;48.072;9.884;2023-03-13T16:36:19;10.77;;;10.47;;
20040;SDS011;10181;48.072;9.884;2023-03-13T16:38:49;17.73;;;17.17;;
20040;SDS011;10181;48.072;9.884;2023-03-13T16:41:18;49.90;;;48.07;;